Time,TemperatureF,DewpointF,PressureIn,WindDirection,WindDirectionDegrees,WindSpeedMPH,WindSpeedGustMPH,Humidity,HourlyPrecipIn,Conditions,Clouds,dailyrainin,SolarRadiationWatts/m^2,SoftwareType,DateUTC
2015-08-29 00:14:00,79.6,56.0,30.04,ESE,112,0.0,0.0,44,0.00,,,0.06,0,weatherlink.com 1.10,2015-08-29 04:14:00,
2015-08-29 00:29:00,79.9,55.0,30.03,ESE,111,1.0,2.0,42,0.00,,,0.06,0,weatherlink.com 1.10,2015-08-29 04:29:00,
2015-08-29 00:44:00,81.0,58.0,30.03,East,100,1.0,4.0,46,0.00,,,0.06,0,weatherlink.com 1.10,2015-08-29 04:44:00,
2015-08-29 00:59:00,81.8,61.0,30.02,SE,127,2.0,6.0,50,0.00,,,0.06,0,weatherlink.com 1.10,2015-08-29 04:59:00,
2015-08-29 01:14:00,82.0,63.0,30.02,East,98,2.0,3.0,52,0.00,,,0.06,0,weatherlink.com 1.10,2015-08-29 05:14:00,
2015-08-29 01:29:00,82.0,63.0,30.01,East,92,2.0,3.0,53,0.00,,,0.06,0,weatherlink.com 1.10,2015-08-29 05:29:00,
2015-08-29 01:44:00,82.1,64.0,30.01,East,81,0.0,3.0,54,0.00,,,0.00,0,weatherlink.com 1.10,2015-08-29 05:44:00,
2015-08-29 01:59:00,82.3,64.0,30.01,ESE,115,0.0,6.0,54,0.00,,,0.00,0,weatherlink.com 1.10,2015-08-29 05:59:00,
2015-08-29 02:14:00,82.4,63.0,30.00,ESE,107,0.0,6.0,53,0.00,,,0.00,0,weatherlink.com 1.10,2015-08-29 06:14:00,
2015-08-29 02:29:00,82.5,63.0,30.00,East,85,4.0,5.0,52,0.00,,,0.00,0,weatherlink.com 1.10,2015-08-29 06:29:00,
2015-08-29 02:44:00,82.6,63.0,30.00,ESE,119,3.0,4.0,52,0.00,,,0.00,0,weatherlink.com 1.10,2015-08-29 06:44:00,
2015-08-29 02:59:00,82.7,64.0,29.99,ESE,123,1.0,6.0,53,0.00,,,0.00,0,weatherlink.com 1.10,2015-08-29 06:59:00,
2015-08-29 03:14:00,82.8,63.0,29.99,ESE,117,3.0,4.0,52,0.00,,,0.00,0,weatherlink.com 1.10,2015-08-29 07:14:00,
2015-08-29 03:29:00,82.8,64.0,29.99,East,90,4.0,7.0,54,0.00,,,0.00,0,weatherlink.com 1.10,2015-08-29 07:29:00,
2015-08-29 03:44:00,82.9,64.0,29.99,ESE,115,0.0,7.0,53,0.00,,,0.00,0,weatherlink.com 1.10,2015-08-29 07:44:00,
2015-08-29 03:59:00,82.8,64.0,29.98,ENE,75,2.0,8.0,53,0.00,,,0.00,0,weatherlink.com 1.10,2015-08-29 07:59:00,
2015-08-29 04:14:00,82.8,64.0,29.99,East,84,3.0,7.0,54,0.00,,,0.00,0,weatherlink.com 1.10,2015-08-29 08:14:00,
2015-08-29 04:29:00,82.8,64.0,29.99,East,99,1.0,9.0,54,0.00,,,0.00,0,weatherlink.com 1.10,2015-08-29 08:29:00,
2015-08-29 04:44:00,82.8,64.0,29.99,ESE,115,1.0,5.0,54,0.00,,,0.00,0,weatherlink.com 1.10,2015-08-29 08:44:00,
2015-08-29 04:59:00,82.8,64.0,29.99,East,90,2.0,6.0,53,0.00,,,0.00,0,weatherlink.com 1.10,2015-08-29 08:59:00,
2015-08-29 05:14:00,82.8,64.0,30.00,East,99,3.0,4.0,53,0.00,,,0.00,0,weatherlink.com 1.10,2015-08-29 09:14:00,
2015-08-29 05:29:00,82.9,64.0,30.00,East,96,3.0,4.0,54,0.00,,,0.00,0,weatherlink.com 1.10,2015-08-29 09:29:00,
2015-08-29 05:44:00,82.9,64.0,29.99,East,95,2.0,6.0,53,0.00,,,0.00,0,weatherlink.com 1.10,2015-08-29 09:44:00,
2015-08-29 05:59:00,82.9,64.0,30.00,East,82,2.0,6.0,53,0.00,,,0.00,0,weatherlink.com 1.10,2015-08-29 09:59:00,
2015-08-29 06:14:00,83.1,65.0,30.00,East,92,0.0,6.0,54,0.00,,,0.00,0,weatherlink.com 1.10,2015-08-29 10:14:00,
2015-08-29 06:29:00,83.1,65.0,30.00,East,88,2.0,4.0,55,0.00,,,0.00,0,weatherlink.com 1.10,2015-08-29 10:29:00,
2015-08-29 06:44:00,83.0,65.0,30.00,ENE,73,2.0,4.0,54,0.00,,,0.00,0,weatherlink.com 1.10,2015-08-29 10:44:00,
2015-08-29 06:59:00,83.3,66.0,30.01,ESE,113,1.0,7.0,56,0.00,,,0.00,0,weatherlink.com 1.10,2015-08-29 10:59:00,
2015-08-29 07:14:00,83.2,65.0,30.01,East,83,2.0,3.0,55,0.00,,,0.00,18,weatherlink.com 1.10,2015-08-29 11:14:00,
2015-08-29 07:29:00,83.2,66.0,30.02,East,94,0.0,2.0,56,0.00,,,0.00,30,weatherlink.com 1.10,2015-08-29 11:29:00,
2015-08-29 07:44:00,83.4,66.0,30.02,East,98,2.0,3.0,55,0.00,,,0.00,62,weatherlink.com 1.10,2015-08-29 11:44:00,
2015-08-29 07:59:00,83.8,65.0,30.03,East,96,1.0,3.0,54,0.00,,,0.00,204,weatherlink.com 1.10,2015-08-29 11:59:00,
2015-08-29 08:14:00,84.7,68.0,30.03,East,80,3.0,7.0,57,0.00,,,0.00,202,weatherlink.com 1.10,2015-08-29 12:14:00,
2015-08-29 08:29:00,85.4,69.0,30.03,East,101,4.0,7.0,58,0.00,,,0.00,260,weatherlink.com 1.10,2015-08-29 12:29:00,
2015-08-29 08:44:00,85.9,70.0,30.02,ENE,78,4.0,7.0,60,0.00,,,0.00,125,weatherlink.com 1.10,2015-08-29 12:44:00,
2015-08-29 08:59:00,85.5,69.0,30.03,ESE,111,2.0,7.0,59,0.00,,,0.00,49,weatherlink.com 1.10,2015-08-29 12:59:00,